createdAt,value
2017-09-04T11:53:50.800Z,27.55
2017-09-04T11:56:24.230Z,27.65
2017-09-04T11:58:51.831Z,27.67
2017-09-04T12:01:19.421Z,27.65
2017-09-04T12:03:46.990Z,27.69
2017-09-04T12:06:14.571Z,27.74
2017-09-04T12:08:42.135Z,27.79
2017-09-04T12:11:09.677Z,27.77
2017-09-04T12:13:37.237Z,27.74
2017-09-04T12:16:04.755Z,27.77
2017-09-04T12:18:32.345Z,27.81
2017-09-04T12:20:59.961Z,27.84
2017-09-04T12:23:27.538Z,27.84
2017-09-04T12:25:55.127Z,27.82
2017-09-04T12:28:22.765Z,27.79
2017-09-04T12:30:50.316Z,27.75
2017-09-04T12:33:17.913Z,27.64
2017-09-04T12:35:45.550Z,27.48
2017-09-04T12:38:13.138Z,27.34
2017-09-04T12:40:40.808Z,27.27
2017-09-04T12:43:08.466Z,27.12
2017-09-04T12:45:35.996Z,27.02
2017-09-04T12:48:03.565Z,26.96
2017-09-04T12:50:31.140Z,26.89
2017-09-04T12:52:58.738Z,26.87
2017-09-04T12:55:26.302Z,26.81
2017-09-04T12:57:53.917Z,26.80
2017-09-04T13:00:21.483Z,26.75
2017-09-04T13:02:49.026Z,26.71
2017-09-04T13:05:16.596Z,26.66
2017-09-04T13:07:44.197Z,26.58
2017-09-04T13:10:29.525Z,26.49
2017-09-04T13:12:58.564Z,26.47
2017-09-04T13:15:31.528Z,26.47
2017-09-04T13:18:19.677Z,26.43
2017-09-04T13:20:53.053Z,26.37
2017-09-04T13:23:21.394Z,26.33
2017-09-04T13:26:00.295Z,26.31
2017-09-04T13:28:33.492Z,26.27
2017-09-04T13:31:06.547Z,26.23
2017-09-04T13:33:39.885Z,26.15
2017-09-04T13:36:12.872Z,26.09
2017-09-04T13:38:46.014Z,26.04
2017-09-04T13:41:32.284Z,26.02
2017-09-04T13:44:16.534Z,25.96
2017-09-04T13:47:01.940Z,25.88
2017-09-04T13:49:44.418Z,25.81
2017-09-04T13:52:17.529Z,25.79
2017-09-04T13:54:50.727Z,25.77
2017-09-04T13:57:24.097Z,25.72
2017-09-04T14:00:10.257Z,25.66
2017-09-04T14:02:56.600Z,25.59
2017-09-04T14:05:39.053Z,25.54
2017-09-04T14:08:24.455Z,25.49
2017-09-04T14:10:57.704Z,25.44
2017-09-04T14:13:41.013Z,25.42
2017-09-04T14:16:26.435Z,25.38
2017-09-04T14:18:54.898Z,25.33
2017-09-04T14:21:22.505Z,25.28
2017-09-04T14:23:50.105Z,25.23
2017-09-04T14:26:17.665Z,25.18
2017-09-04T14:28:45.194Z,25.14
2017-09-04T14:31:12.778Z,25.12
2017-09-04T14:33:40.364Z,25.10
2017-09-04T14:36:07.936Z,25.11
2017-09-04T14:38:35.758Z,25.08
2017-09-04T14:41:05.008Z,25.06
2017-09-04T14:43:49.275Z,25.04
2017-09-04T14:46:34.560Z,25.00
2017-09-04T14:49:02.181Z,24.96
2017-09-04T14:51:29.881Z,25.16
2017-09-04T14:53:57.606Z,25.51
2017-09-04T14:56:25.208Z,25.82
2017-09-04T14:58:52.806Z,26.05
2017-09-04T15:01:20.527Z,26.27
2017-09-04T15:03:48.075Z,26.32
2017-09-04T15:06:15.644Z,26.14
2017-09-04T15:08:43.261Z,26.05
2017-09-04T15:11:10.868Z,25.98
2017-09-04T15:13:38.435Z,25.89
2017-09-04T15:16:06.076Z,25.69
2017-09-04T15:18:33.648Z,25.54
2017-09-04T15:21:01.253Z,25.58
2017-09-04T15:23:28.920Z,25.57
2017-09-04T15:25:56.541Z,25.56
2017-09-04T15:28:25.590Z,25.72
2017-09-04T15:30:53.258Z,25.65
2017-09-04T15:33:20.939Z,25.51
2017-09-04T15:35:48.621Z,25.40
2017-09-04T15:38:16.250Z,25.22
2017-09-04T15:40:43.865Z,25.06
2017-09-04T15:43:11.472Z,24.92
2017-09-04T15:45:39.119Z,24.77
2017-09-04T15:48:06.687Z,24.62
2017-09-04T15:50:34.452Z,24.52
2017-09-04T15:53:02.122Z,24.40
2017-09-04T15:55:29.725Z,24.30
2017-09-04T15:57:57.342Z,24.20
2017-09-04T16:00:24.980Z,24.13
2017-09-04T16:02:52.528Z,24.02
2017-09-04T16:05:20.434Z,23.93
2017-09-04T16:07:51.445Z,23.85
2017-09-04T16:10:19.031Z,23.79
2017-09-04T16:12:49.976Z,23.73
2017-09-04T16:15:23.158Z,23.65
2017-09-04T16:17:54.230Z,23.57
2017-09-04T16:20:32.544Z,23.50
2017-09-04T16:23:00.089Z,23.44
2017-09-04T16:25:29.271Z,23.40
2017-09-04T16:28:00.277Z,23.35
2017-09-04T16:30:46.697Z,23.28
2017-09-04T16:33:19.797Z,23.22
2017-09-04T16:35:49.920Z,23.15
2017-09-04T16:38:17.525Z,23.09
2017-09-04T16:40:45.129Z,23.05
2017-09-04T16:43:18.246Z,22.98
2017-09-04T16:46:00.753Z,22.93
2017-09-04T16:48:33.828Z,22.86
2017-09-04T16:51:07.943Z,22.81
2017-09-04T16:53:36.194Z,22.76
2017-09-04T16:56:10.411Z,22.67
2017-09-04T16:58:38.017Z,22.55
2017-09-04T17:01:05.768Z,22.46
2017-09-04T17:03:33.514Z,22.35
2017-09-04T17:06:01.110Z,22.25
2017-09-04T17:08:44.506Z,22.13
2017-09-04T17:11:30.808Z,22.00
2017-09-04T17:13:58.400Z,21.91
2017-09-04T17:16:25.924Z,21.83
2017-09-04T17:18:53.940Z,21.77
2017-09-04T17:21:34.215Z,21.72
2017-09-04T17:24:01.802Z,21.67
2017-09-04T17:26:29.409Z,21.62
2017-09-04T17:28:57.042Z,21.55
2017-09-04T17:31:24.600Z,21.49
2017-09-04T17:33:52.201Z,21.45
2017-09-04T17:36:19.810Z,21.39
2017-09-04T17:38:47.393Z,21.33
2017-09-04T17:41:14.969Z,21.25
2017-09-04T17:43:42.590Z,21.19
2017-09-04T17:46:10.137Z,21.14
2017-09-04T17:48:37.696Z,21.08
2017-09-04T17:51:05.378Z,21.02
2017-09-04T17:53:32.934Z,20.98
2017-09-04T17:56:00.527Z,20.95
2017-09-04T17:58:28.144Z,20.91
2017-09-04T18:00:55.720Z,20.88
2017-09-04T18:03:23.252Z,20.87
2017-09-04T18:05:50.879Z,20.84
2017-09-04T18:08:18.443Z,20.83
2017-09-04T18:10:46.049Z,20.80
2017-09-04T18:13:13.669Z,20.77
2017-09-04T18:15:41.267Z,20.75
2017-09-04T18:18:08.807Z,20.73
2017-09-04T18:20:36.392Z,20.69
2017-09-04T18:23:03.965Z,20.65
2017-09-04T18:25:31.532Z,20.61
2017-09-04T18:27:59.121Z,20.58
2017-09-04T18:30:26.658Z,20.54
2017-09-04T18:32:54.258Z,20.51
2017-09-04T18:35:21.895Z,20.48
2017-09-04T18:37:49.473Z,20.45
2017-09-04T18:40:17.071Z,20.41
2017-09-04T18:42:44.659Z,20.35
2017-09-04T18:45:12.273Z,20.31
2017-09-04T18:47:39.860Z,20.28
2017-09-04T18:50:07.464Z,20.26
2017-09-04T18:52:35.067Z,20.24
2017-09-04T18:55:02.643Z,20.21
2017-09-04T18:57:31.044Z,20.18
2017-09-04T18:59:58.670Z,20.15
2017-09-04T19:05:03.861Z,20.10
2017-09-04T19:12:39.608Z,20.09
2017-09-04T19:15:07.264Z,20.05
2017-09-04T19:17:34.928Z,20.08
2017-09-04T19:20:02.453Z,20.10
2017-09-04T19:22:30.034Z,20.13
2017-09-04T19:24:57.599Z,20.17
2017-09-04T19:27:25.174Z,20.22
2017-09-04T19:29:52.827Z,20.23
2017-09-04T19:32:20.349Z,20.23
2017-09-04T19:34:47.939Z,20.26
2017-09-04T19:37:15.536Z,20.27
2017-09-04T19:39:43.097Z,20.30
2017-09-04T19:42:10.667Z,20.34
2017-09-04T19:44:38.464Z,20.39
2017-09-04T19:47:06.044Z,20.42
2017-09-04T19:49:33.628Z,20.44
2017-09-04T19:52:01.242Z,20.47
2017-09-04T19:54:28.807Z,20.48
2017-09-04T19:56:56.339Z,20.49
2017-09-04T19:59:23.954Z,20.48
2017-09-04T20:01:51.576Z,20.49
2017-09-04T20:04:19.162Z,20.49
2017-09-04T20:06:47.572Z,20.47
2017-09-04T20:09:15.164Z,20.45
2017-09-04T20:11:43.288Z,20.44
2017-09-04T20:14:11.453Z,20.41
2017-09-04T20:16:39.191Z,20.37
2017-09-04T20:19:06.719Z,20.35
2017-09-04T20:21:34.323Z,20.24
2017-09-04T20:24:01.924Z,20.13
2017-09-04T20:26:29.525Z,20.11
2017-09-04T20:28:57.157Z,20.11
2017-09-04T20:31:24.730Z,20.13
2017-09-04T20:33:52.252Z,20.15
2017-09-04T20:36:19.807Z,20.16
2017-09-04T20:38:47.336Z,20.18
2017-09-04T20:41:14.898Z,20.18
2017-09-04T20:43:42.521Z,20.18
2017-09-04T20:46:11.004Z,20.19
